sensor_id;sensor_type;location;lat;lon;timestamp;P1;durP1;ratioP1;P2;durP2;ratioP2
485;SDS011;229;48.734;9.340;2023-04-08T00:02:03;13.23;;;10.35;;
485;SDS011;229;48.734;9.340;2023-04-08T00:04:31;15.50;;;11.10;;
485;SDS011;229;48.734;9.340;2023-04-08T00:06:58;14.40;;;11.15;;
485;SDS011;229;48.734;9.340;2023-04-08T00:09:25;15.43;;;11.05;;
485;SDS011;229;48.734;9.340;2023-04-08T00:11:53;18.15;;;12.18;;
485;SDS011;229;48.734;9.340;2023-04-08T00:14:21;14.15;;;10.65;;
485;SDS011;229;48.734;9.340;2023-04-08T00:16:48;14.93;;;11.48;;
485;SDS011;229;48.734;9.340;2023-04-08T00:19:16;15.30;;;11.73;;
485;SDS011;229;48.734;9.340;2023-04-08T00:21:43;16.80;;;11.82;;
485;SDS011;229;48.734;9.340;2023-04-08T00:24:10;19.92;;;11.75;;
485;SDS011;229;48.734;9.340;2023-04-08T00:26:37;17.60;;;12.15;;
485;SDS011;229;48.734;9.340;2023-04-08T00:29:06;15.80;;;12.32;;
485;SDS011;229;48.734;9.340;2023-04-08T00:31:33;16.48;;;12.23;;
485;SDS011;229;48.734;9.340;2023-04-08T00:34:00;17.23;;;12.45;;
485;SDS011;229;48.734;9.340;2023-04-08T00:36:27;16.85;;;13.00;;
485;SDS011;229;48.734;9.340;2023-04-08T00:38:55;17.83;;;12.85;;
485;SDS011;229;48.734;9.340;2023-04-08T00:41:22;18.08;;;12.77;;
485;SDS011;229;48.734;9.340;2023-04-08T00:43:49;19.35;;;13.93;;
485;SDS011;229;48.734;9.340;2023-04-08T00:46:17;20.33;;;14.27;;
485;SDS011;229;48.734;9.340;2023-04-08T00:48:45;18.55;;;13.43;;
485;SDS011;229;48.734;9.340;2023-04-08T00:51:12;19.55;;;14.20;;
485;SDS011;229;48.734;9.340;2023-04-08T00:53:40;18.52;;;12.73;;
485;SDS011;229;48.734;9.340;2023-04-08T00:56:07;21.35;;;15.20;;
485;SDS011;229;48.734;9.340;2023-04-08T00:58:34;17.77;;;13.50;;
485;SDS011;229;48.734;9.340;2023-04-08T01:01:02;20.30;;;14.02;;
485;SDS011;229;48.734;9.340;2023-04-08T01:03:37;18.40;;;14.20;;
485;SDS011;229;48.734;9.340;2023-04-08T01:06:06;20.40;;;14.27;;
485;SDS011;229;48.734;9.340;2023-04-08T01:08:37;20.17;;;14.05;;
485;SDS011;229;48.734;9.340;2023-04-08T01:11:06;16.35;;;12.55;;
485;SDS011;229;48.734;9.340;2023-04-08T01:13:36;18.08;;;13.60;;
485;SDS011;229;48.734;9.340;2023-04-08T01:16:05;22.55;;;15.90;;
485;SDS011;229;48.734;9.340;2023-04-08T01:18:36;17.08;;;12.95;;
485;SDS011;229;48.734;9.340;2023-04-08T01:21:04;22.95;;;14.55;;
485;SDS011;229;48.734;9.340;2023-04-08T01:23:35;24.65;;;14.85;;
485;SDS011;229;48.734;9.340;2023-04-08T01:26:05;22.42;;;15.75;;
485;SDS011;229;48.734;9.340;2023-04-08T01:28:32;19.00;;;14.70;;
485;SDS011;229;48.734;9.340;2023-04-08T01:31:01;21.65;;;15.48;;
485;SDS011;229;48.734;9.340;2023-04-08T01:33:29;21.55;;;15.20;;
485;SDS011;229;48.734;9.340;2023-04-08T01:35:57;19.75;;;14.25;;
485;SDS011;229;48.734;9.340;2023-04-08T01:38:25;21.88;;;15.65;;
485;SDS011;229;48.734;9.340;2023-04-08T01:40:52;21.75;;;15.50;;
485;SDS011;229;48.734;9.340;2023-04-08T01:43:21;21.20;;;15.10;;
485;SDS011;229;48.734;9.340;2023-04-08T01:45:50;18.80;;;13.77;;
485;SDS011;229;48.734;9.340;2023-04-08T01:48:22;22.20;;;14.90;;
485;SDS011;229;48.734;9.340;2023-04-08T01:50:50;21.30;;;15.93;;
485;SDS011;229;48.734;9.340;2023-04-08T01:53:17;19.45;;;14.93;;
485;SDS011;229;48.734;9.340;2023-04-08T01:55:46;21.25;;;15.50;;
485;SDS011;229;48.734;9.340;2023-04-08T01:58:16;21.70;;;15.88;;
485;SDS011;229;48.734;9.340;2023-04-08T02:00:45;22.02;;;15.20;;
485;SDS011;229;48.734;9.340;2023-04-08T02:03:13;20.80;;;15.27;;
485;SDS011;229;48.734;9.340;2023-04-08T02:05:42;20.23;;;15.30;;
485;SDS011;229;48.734;9.340;2023-04-08T02:08:10;18.83;;;14.80;;
485;SDS011;229;48.734;9.340;2023-04-08T02:10:37;21.20;;;14.70;;
485;SDS011;229;48.734;9.340;2023-04-08T02:13:05;19.45;;;15.23;;
485;SDS011;229;48.734;9.340;2023-04-08T02:15:33;21.70;;;15.73;;
485;SDS011;229;48.734;9.340;2023-04-08T02:18:04;21.25;;;15.25;;
485;SDS011;229;48.734;9.340;2023-04-08T02:20:36;22.30;;;15.60;;
485;SDS011;229;48.734;9.340;2023-04-08T02:23:06;19.98;;;15.52;;
485;SDS011;229;48.734;9.340;2023-04-08T02:25:36;19.10;;;15.32;;
485;SDS011;229;48.734;9.340;2023-04-08T02:28:04;20.55;;;15.25;;
485;SDS011;229;48.734;9.340;2023-04-08T02:30:32;18.63;;;14.40;;
485;SDS011;229;48.734;9.340;2023-04-08T02:33:00;20.77;;;15.48;;
485;SDS011;229;48.734;9.340;2023-04-08T02:35:30;20.33;;;15.40;;
485;SDS011;229;48.734;9.340;2023-04-08T02:37:58;20.65;;;14.77;;
485;SDS011;229;48.734;9.340;2023-04-08T02:40:26;19.88;;;14.93;;
485;SDS011;229;48.734;9.340;2023-04-08T02:42:53;18.92;;;14.68;;
485;SDS011;229;48.734;9.340;2023-04-08T02:45:20;20.38;;;14.68;;
485;SDS011;229;48.734;9.340;2023-04-08T02:47:48;21.92;;;15.88;;
485;SDS011;229;48.734;9.340;2023-04-08T02:50:15;20.02;;;15.45;;
485;SDS011;229;48.734;9.340;2023-04-08T02:52:44;18.73;;;14.45;;
485;SDS011;229;48.734;9.340;2023-04-08T02:55:11;19.17;;;14.18;;
485;SDS011;229;48.734;9.340;2023-04-08T02:57:38;18.45;;;14.95;;
485;SDS011;229;48.734;9.340;2023-04-08T03:00:06;20.75;;;15.80;;
485;SDS011;229;48.734;9.340;2023-04-08T03:02:34;18.60;;;15.15;;
485;SDS011;229;48.734;9.340;2023-04-08T03:05:01;19.90;;;14.90;;
485;SDS011;229;48.734;9.340;2023-04-08T03:07:29;20.83;;;15.18;;
485;SDS011;229;48.734;9.340;2023-04-08T03:09:59;19.63;;;14.98;;
485;SDS011;229;48.734;9.340;2023-04-08T03:12:26;18.70;;;15.00;;
485;SDS011;229;48.734;9.340;2023-04-08T03:14:54;20.85;;;15.85;;
485;SDS011;229;48.734;9.340;2023-04-08T03:17:21;20.20;;;14.48;;
485;SDS011;229;48.734;9.340;2023-04-08T03:19:48;22.25;;;15.30;;
485;SDS011;229;48.734;9.340;2023-04-08T03:22:15;18.60;;;14.80;;
485;SDS011;229;48.734;9.340;2023-04-08T03:24:42;22.42;;;16.40;;
485;SDS011;229;48.734;9.340;2023-04-08T03:27:11;22.35;;;15.63;;
485;SDS011;229;48.734;9.340;2023-04-08T03:29:38;19.95;;;14.98;;
485;SDS011;229;48.734;9.340;2023-04-08T03:32:05;21.55;;;15.60;;
485;SDS011;229;48.734;9.340;2023-04-08T03:34:33;18.88;;;14.90;;
485;SDS011;229;48.734;9.340;2023-04-08T03:37:00;21.65;;;16.27;;
485;SDS011;229;48.734;9.340;2023-04-08T03:39:27;22.13;;;16.05;;
485;SDS011;229;48.734;9.340;2023-04-08T03:41:55;22.52;;;15.77;;
485;SDS011;229;48.734;9.340;2023-04-08T03:44:25;21.40;;;15.48;;
485;SDS011;229;48.734;9.340;2023-04-08T03:46:52;20.70;;;14.93;;
485;SDS011;229;48.734;9.340;2023-04-08T03:49:19;19.35;;;14.40;;
485;SDS011;229;48.734;9.340;2023-04-08T03:51:47;21.35;;;15.20;;
485;SDS011;229;48.734;9.340;2023-04-08T03:54:14;19.90;;;14.93;;
485;SDS011;229;48.734;9.340;2023-04-08T03:56:41;23.00;;;15.55;;
485;SDS011;229;48.734;9.340;2023-04-08T03:59:08;19.85;;;14.35;;
485;SDS011;229;48.734;9.340;2023-04-08T04:01:37;22.10;;;14.70;;
485;SDS011;229;48.734;9.340;2023-04-08T04:04:04;19.38;;;14.95;;
485;SDS011;229;48.734;9.340;2023-04-08T04:06:31;19.50;;;14.15;;
485;SDS011;229;48.734;9.340;2023-04-08T04:08:58;19.92;;;14.15;;
485;SDS011;229;48.734;9.340;2023-04-08T04:11:26;21.30;;;14.57;;
485;SDS011;229;48.734;9.340;2023-04-08T04:13:53;21.10;;;14.45;;
485;SDS011;229;48.734;9.340;2023-04-08T04:16:20;19.00;;;13.70;;
485;SDS011;229;48.734;9.340;2023-04-08T04:18:48;18.17;;;14.02;;
485;SDS011;229;48.734;9.340;2023-04-08T04:21:16;20.75;;;13.90;;
485;SDS011;229;48.734;9.340;2023-04-08T04:23:43;21.77;;;14.38;;
485;SDS011;229;48.734;9.340;2023-04-08T04:26:10;17.77;;;12.90;;
485;SDS011;229;48.734;9.340;2023-04-08T04:28:37;17.60;;;12.27;;
485;SDS011;229;48.734;9.340;2023-04-08T04:31:05;19.13;;;12.43;;
485;SDS011;229;48.734;9.340;2023-04-08T04:33:32;14.82;;;11.43;;
485;SDS011;229;48.734;9.340;2023-04-08T04:36:01;16.30;;;12.10;;
485;SDS011;229;48.734;9.340;2023-04-08T04:38:28;19.92;;;13.82;;
485;SDS011;229;48.734;9.340;2023-04-08T04:40:55;19.30;;;12.68;;
485;SDS011;229;48.734;9.340;2023-04-08T04:43:23;17.52;;;11.80;;
485;SDS011;229;48.734;9.340;2023-04-08T04:45:50;18.88;;;14.40;;
485;SDS011;229;48.734;9.340;2023-04-08T04:48:17;17.90;;;12.48;;
485;SDS011;229;48.734;9.340;2023-04-08T04:50:52;19.92;;;13.38;;
485;SDS011;229;48.734;9.340;2023-04-08T04:53:21;20.50;;;13.60;;
485;SDS011;229;48.734;9.340;2023-04-08T04:55:48;21.83;;;14.50;;
485;SDS011;229;48.734;9.340;2023-04-08T04:58:15;22.35;;;14.88;;
485;SDS011;229;48.734;9.340;2023-04-08T05:00:43;22.33;;;14.88;;
485;SDS011;229;48.734;9.340;2023-04-08T05:03:10;28.13;;;16.17;;
485;SDS011;229;48.734;9.340;2023-04-08T05:05:37;20.83;;;13.20;;
485;SDS011;229;48.734;9.340;2023-04-08T05:08:05;26.02;;;17.55;;
485;SDS011;229;48.734;9.340;2023-04-08T05:10:33;18.50;;;14.18;;
485;SDS011;229;48.734;9.340;2023-04-08T05:13:01;18.02;;;12.70;;
485;SDS011;229;48.734;9.340;2023-04-08T05:15:28;21.27;;;14.55;;
485;SDS011;229;48.734;9.340;2023-04-08T05:17:55;23.15;;;13.55;;
485;SDS011;229;48.734;9.340;2023-04-08T05:20:22;22.05;;;15.95;;
485;SDS011;229;48.734;9.340;2023-04-08T05:22:49;23.02;;;13.70;;
485;SDS011;229;48.734;9.340;2023-04-08T05:25:16;28.27;;;16.48;;
485;SDS011;229;48.734;9.340;2023-04-08T05:27:45;31.67;;;18.80;;
485;SDS011;229;48.734;9.340;2023-04-08T05:30:12;25.70;;;18.35;;
485;SDS011;229;48.734;9.340;2023-04-08T05:32:40;29.92;;;18.38;;
485;SDS011;229;48.734;9.340;2023-04-08T05:35:07;27.55;;;19.48;;
485;SDS011;229;48.734;9.340;2023-04-08T05:37:35;29.40;;;18.00;;
485;SDS011;229;48.734;9.340;2023-04-08T05:40:02;35.22;;;20.25;;
485;SDS011;229;48.734;9.340;2023-04-08T05:42:29;32.10;;;19.13;;
485;SDS011;229;48.734;9.340;2023-04-08T05:44:58;33.88;;;21.05;;
485;SDS011;229;48.734;9.340;2023-04-08T05:47:25;36.42;;;21.58;;
485;SDS011;229;48.734;9.340;2023-04-08T05:49:53;31.33;;;20.20;;
485;SDS011;229;48.734;9.340;2023-04-08T05:52:20;32.17;;;19.77;;
485;SDS011;229;48.734;9.340;2023-04-08T05:54:47;31.35;;;20.95;;
485;SDS011;229;48.734;9.340;2023-04-08T05:57:14;33.33;;;21.48;;
485;SDS011;229;48.734;9.340;2023-04-08T05:59:41;28.52;;;18.95;;
485;SDS011;229;48.734;9.340;2023-04-08T06:02:10;31.88;;;21.02;;
485;SDS011;229;48.734;9.340;2023-04-08T06:04:37;36.75;;;20.92;;
485;SDS011;229;48.734;9.340;2023-04-08T06:07:04;33.90;;;21.15;;
485;SDS011;229;48.734;9.340;2023-04-08T06:09:33;34.80;;;21.35;;
485;SDS011;229;48.734;9.340;2023-04-08T06:12:01;30.38;;;19.60;;
485;SDS011;229;48.734;9.340;2023-04-08T06:14:28;32.20;;;19.73;;
485;SDS011;229;48.734;9.340;2023-04-08T06:16:55;34.72;;;22.10;;
485;SDS011;229;48.734;9.340;2023-04-08T06:19:24;31.60;;;20.90;;
485;SDS011;229;48.734;9.340;2023-04-08T06:21:51;31.88;;;22.10;;
485;SDS011;229;48.734;9.340;2023-04-08T06:24:22;33.95;;;21.15;;
485;SDS011;229;48.734;9.340;2023-04-08T06:26:50;37.92;;;22.25;;
485;SDS011;229;48.734;9.340;2023-04-08T06:29:18;34.55;;;22.58;;
485;SDS011;229;48.734;9.340;2023-04-08T06:31:45;32.55;;;22.10;;
485;SDS011;229;48.734;9.340;2023-04-08T06:34:13;37.72;;;23.92;;
485;SDS011;229;48.734;9.340;2023-04-08T06:36:41;32.47;;;21.50;;
485;SDS011;229;48.734;9.340;2023-04-08T06:39:08;36.88;;;22.17;;
485;SDS011;229;48.734;9.340;2023-04-08T06:41:36;29.50;;;20.13;;
485;SDS011;229;48.734;9.340;2023-04-08T06:44:03;28.05;;;19.25;;
485;SDS011;229;48.734;9.340;2023-04-08T06:46:30;27.27;;;18.63;;
485;SDS011;229;48.734;9.340;2023-04-08T06:48:57;26.63;;;18.58;;
485;SDS011;229;48.734;9.340;2023-04-08T06:51:24;24.77;;;17.05;;
485;SDS011;229;48.734;9.340;2023-04-08T06:53:53;25.63;;;18.77;;
485;SDS011;229;48.734;9.340;2023-04-08T06:56:20;25.88;;;16.67;;
485;SDS011;229;48.734;9.340;2023-04-08T06:58:50;21.63;;;16.00;;
485;SDS011;229;48.734;9.340;2023-04-08T07:01:17;20.40;;;14.90;;
485;SDS011;229;48.734;9.340;2023-04-08T07:03:44;22.52;;;15.00;;
485;SDS011;229;48.734;9.340;2023-04-08T07:06:11;21.98;;;14.52;;
485;SDS011;229;48.734;9.340;2023-04-08T07:08:38;21.45;;;14.77;;
485;SDS011;229;48.734;9.340;2023-04-08T07:11:07;22.65;;;16.10;;
485;SDS011;229;48.734;9.340;2023-04-08T07:13:37;23.42;;;14.95;;
485;SDS011;229;48.734;9.340;2023-04-08T07:16:04;19.85;;;14.98;;
485;SDS011;229;48.734;9.340;2023-04-08T07:18:32;19.90;;;14.40;;
485;SDS011;229;48.734;9.340;2023-04-08T07:20:59;26.17;;;16.45;;
485;SDS011;229;48.734;9.340;2023-04-08T07:23:26;21.33;;;15.45;;
485;SDS011;229;48.734;9.340;2023-04-08T07:25:53;18.80;;;14.15;;
485;SDS011;229;48.734;9.340;2023-04-08T07:28:22;19.83;;;14.88;;
485;SDS011;229;48.734;9.340;2023-04-08T07:30:49;21.70;;;16.05;;
485;SDS011;229;48.734;9.340;2023-04-08T07:33:16;19.70;;;15.10;;
485;SDS011;229;48.734;9.340;2023-04-08T07:35:43;21.08;;;15.10;;
485;SDS011;229;48.734;9.340;2023-04-08T07:38:11;21.33;;;14.88;;
485;SDS011;229;48.734;9.340;2023-04-08T07:40:38;23.45;;;17.25;;
485;SDS011;229;48.734;9.340;2023-04-08T07:43:05;22.67;;;16.73;;
485;SDS011;229;48.734;9.340;2023-04-08T07:45:34;22.85;;;15.18;;
485;SDS011;229;48.734;9.340;2023-04-08T07:48:01;20.38;;;14.50;;
485;SDS011;229;48.734;9.340;2023-04-08T07:50:28;22.65;;;16.63;;
485;SDS011;229;48.734;9.340;2023-04-08T07:52:56;20.70;;;14.98;;
485;SDS011;229;48.734;9.340;2023-04-08T07:55:23;25.10;;;18.05;;
485;SDS011;229;48.734;9.340;2023-04-08T07:57:50;23.42;;;16.58;;
485;SDS011;229;48.734;9.340;2023-04-08T08:00:18;23.02;;;15.95;;
485;SDS011;229;48.734;9.340;2023-04-08T08:02:47;22.15;;;17.10;;
485;SDS011;229;48.734;9.340;2023-04-08T08:05:14;24.17;;;16.85;;
485;SDS011;229;48.734;9.340;2023-04-08T08:07:41;24.58;;;16.17;;
485;SDS011;229;48.734;9.340;2023-04-08T08:10:09;25.23;;;17.30;;
485;SDS011;229;48.734;9.340;2023-04-08T08:12:36;21.02;;;15.95;;
485;SDS011;229;48.734;9.340;2023-04-08T08:15:03;22.15;;;16.13;;
485;SDS011;229;48.734;9.340;2023-04-08T08:17:31;22.23;;;16.35;;
485;SDS011;229;48.734;9.340;2023-04-08T08:20:00;23.08;;;17.13;;
485;SDS011;229;48.734;9.340;2023-04-08T08:22:28;20.65;;;15.35;;
485;SDS011;229;48.734;9.340;2023-04-08T08:24:55;19.25;;;14.52;;
485;SDS011;229;48.734;9.340;2023-04-08T08:27:23;20.27;;;16.00;;
485;SDS011;229;48.734;9.340;2023-04-08T08:29:51;22.13;;;16.70;;
485;SDS011;229;48.734;9.340;2023-04-08T08:32:21;20.58;;;15.85;;
485;SDS011;229;48.734;9.340;2023-04-08T08:34:48;20.95;;;16.15;;
485;SDS011;229;48.734;9.340;2023-04-08T08:37:16;20.67;;;14.90;;
485;SDS011;229;48.734;9.340;2023-04-08T08:39:43;21.85;;;16.70;;
485;SDS011;229;48.734;9.340;2023-04-08T08:42:17;22.67;;;16.25;;
485;SDS011;229;48.734;9.340;2023-04-08T08:44:45;21.25;;;16.27;;
485;SDS011;229;48.734;9.340;2023-04-08T08:47:12;22.63;;;15.75;;
485;SDS011;229;48.734;9.340;2023-04-08T08:49:40;20.65;;;15.10;;
485;SDS011;229;48.734;9.340;2023-04-08T08:52:07;14.35;;;12.98;;
485;SDS011;229;48.734;9.340;2023-04-08T08:54:36;17.98;;;14.48;;
485;SDS011;229;48.734;9.340;2023-04-08T08:57:04;18.75;;;15.50;;
485;SDS011;229;48.734;9.340;2023-04-08T08:59:31;16.58;;;14.00;;
485;SDS011;229;48.734;9.340;2023-04-08T09:01:59;20.48;;;14.18;;
485;SDS011;229;48.734;9.340;2023-04-08T09:04:26;16.52;;;14.30;;
485;SDS011;229;48.734;9.340;2023-04-08T09:07:06;24.08;;;16.38;;
485;SDS011;229;48.734;9.340;2023-04-08T09:09:46;18.48;;;13.98;;
485;SDS011;229;48.734;9.340;2023-04-08T09:12:14;18.38;;;14.50;;
485;SDS011;229;48.734;9.340;2023-04-08T09:14:41;19.83;;;15.88;;
485;SDS011;229;48.734;9.340;2023-04-08T09:17:08;18.73;;;14.13;;
485;SDS011;229;48.734;9.340;2023-04-08T09:19:36;18.05;;;15.18;;
485;SDS011;229;48.734;9.340;2023-04-08T09:22:03;17.90;;;14.00;;
485;SDS011;229;48.734;9.340;2023-04-08T09:24:32;17.83;;;13.52;;
485;SDS011;229;48.734;9.340;2023-04-08T09:27:01;19.35;;;14.00;;
485;SDS011;229;48.734;9.340;2023-04-08T09:29:30;17.63;;;14.27;;
485;SDS011;229;48.734;9.340;2023-04-08T09:31:59;17.40;;;14.18;;
485;SDS011;229;48.734;9.340;2023-04-08T09:34:27;17.25;;;14.27;;
485;SDS011;229;48.734;9.340;2023-04-08T09:36:56;17.77;;;13.82;;
485;SDS011;229;48.734;9.340;2023-04-08T09:39:23;14.65;;;13.93;;
485;SDS011;229;48.734;9.340;2023-04-08T09:41:51;16.85;;;14.05;;
485;SDS011;229;48.734;9.340;2023-04-08T09:44:19;18.10;;;14.40;;
485;SDS011;229;48.734;9.340;2023-04-08T09:46:51;16.92;;;14.38;;
485;SDS011;229;48.734;9.340;2023-04-08T09:49:22;15.98;;;13.27;;
485;SDS011;229;48.734;9.340;2023-04-08T09:51:52;18.65;;;14.15;;
485;SDS011;229;48.734;9.340;2023-04-08T09:54:22;16.58;;;13.98;;
485;SDS011;229;48.734;9.340;2023-04-08T09:56:53;19.88;;;15.57;;
485;SDS011;229;48.734;9.340;2023-04-08T09:59:24;18.23;;;15.15;;
485;SDS011;229;48.734;9.340;2023-04-08T10:01:53;20.23;;;13.48;;
485;SDS011;229;48.734;9.340;2023-04-08T10:04:21;16.42;;;13.73;;
485;SDS011;229;48.734;9.340;2023-04-08T10:06:50;18.02;;;14.65;;
485;SDS011;229;48.734;9.340;2023-04-08T10:09:18;19.08;;;14.82;;
485;SDS011;229;48.734;9.340;2023-04-08T10:11:46;15.80;;;14.07;;
485;SDS011;229;48.734;9.340;2023-04-08T10:14:13;17.85;;;13.38;;
485;SDS011;229;48.734;9.340;2023-04-08T10:16:42;16.45;;;13.80;;
485;SDS011;229;48.734;9.340;2023-04-08T10:21:51;17.15;;;14.43;;
485;SDS011;229;48.734;9.340;2023-04-08T10:24:18;19.60;;;15.10;;
485;SDS011;229;48.734;9.340;2023-04-08T10:26:49;18.40;;;15.82;;
485;SDS011;229;48.734;9.340;2023-04-08T10:29:29;19.25;;;16.80;;
485;SDS011;229;48.734;9.340;2023-04-08T10:31:58;19.77;;;15.68;;
485;SDS011;229;48.734;9.340;2023-04-08T10:34:26;18.50;;;15.05;;
485;SDS011;229;48.734;9.340;2023-04-08T10:36:53;21.10;;;15.65;;
485;SDS011;229;48.734;9.340;2023-04-08T10:39:23;16.92;;;14.52;;
485;SDS011;229;48.734;9.340;2023-04-08T10:41:51;19.70;;;15.95;;
485;SDS011;229;48.734;9.340;2023-04-08T10:44:18;19.40;;;16.13;;
485;SDS011;229;48.734;9.340;2023-04-08T10:46:46;17.13;;;15.27;;
485;SDS011;229;48.734;9.340;2023-04-08T10:49:15;20.00;;;16.05;;
485;SDS011;229;48.734;9.340;2023-04-08T10:51:42;18.83;;;15.50;;
485;SDS011;229;48.734;9.340;2023-04-08T10:54:11;18.38;;;14.60;;
485;SDS011;229;48.734;9.340;2023-04-08T10:56:42;17.38;;;15.43;;
485;SDS011;229;48.734;9.340;2023-04-08T10:59:10;22.67;;;15.30;;
485;SDS011;229;48.734;9.340;2023-04-08T11:01:40;14.82;;;13.07;;
485;SDS011;229;48.734;9.340;2023-04-08T11:04:16;18.77;;;14.90;;
485;SDS011;229;48.734;9.340;2023-04-08T11:06:45;16.77;;;13.40;;
485;SDS011;229;48.734;9.340;2023-04-08T11:09:13;25.27;;;14.25;;
485;SDS011;229;48.734;9.340;2023-04-08T11:11:40;18.23;;;15.50;;
485;SDS011;229;48.734;9.340;2023-04-08T11:14:08;19.65;;;15.20;;
485;SDS011;229;48.734;9.340;2023-04-08T11:16:36;18.23;;;14.00;;
485;SDS011;229;48.734;9.340;2023-04-08T11:19:03;15.18;;;13.52;;
485;SDS011;229;48.734;9.340;2023-04-08T11:21:32;15.57;;;13.13;;
485;SDS011;229;48.734;9.340;2023-04-08T11:24:05;15.82;;;13.73;;
485;SDS011;229;48.734;9.340;2023-04-08T11:26:34;16.73;;;13.50;;
485;SDS011;229;48.734;9.340;2023-04-08T11:29:02;16.33;;;12.77;;
485;SDS011;229;48.734;9.340;2023-04-08T11:31:30;14.48;;;11.57;;
485;SDS011;229;48.734;9.340;2023-04-08T11:33:58;14.55;;;12.05;;
485;SDS011;229;48.734;9.340;2023-04-08T11:36:27;13.45;;;12.57;;
485;SDS011;229;48.734;9.340;2023-04-08T11:38:56;14.10;;;12.48;;
485;SDS011;229;48.734;9.340;2023-04-08T11:41:23;13.65;;;12.77;;
485;SDS011;229;48.734;9.340;2023-04-08T11:43:52;16.30;;;11.98;;
485;SDS011;229;48.734;9.340;2023-04-08T11:46:19;15.18;;;11.95;;
485;SDS011;229;48.734;9.340;2023-04-08T11:48:59;16.73;;;12.18;;
485;SDS011;229;48.734;9.340;2023-04-08T11:51:27;15.05;;;12.02;;
485;SDS011;229;48.734;9.340;2023-04-08T11:53:54;16.33;;;11.23;;
485;SDS011;229;48.734;9.340;2023-04-08T11:56:23;13.70;;;11.75;;
485;SDS011;229;48.734;9.340;2023-04-08T11:58:51;16.65;;;12.30;;
485;SDS011;229;48.734;9.340;2023-04-08T12:01:18;15.60;;;12.98;;
485;SDS011;229;48.734;9.340;2023-04-08T12:03:56;14.50;;;11.55;;
485;SDS011;229;48.734;9.340;2023-04-08T12:06:23;13.60;;;11.90;;
485;SDS011;229;48.734;9.340;2023-04-08T12:08:52;15.52;;;12.00;;
485;SDS011;229;48.734;9.340;2023-04-08T12:11:19;14.65;;;12.20;;
485;SDS011;229;48.734;9.340;2023-04-08T12:13:48;17.02;;;12.68;;
485;SDS011;229;48.734;9.340;2023-04-08T12:16:16;14.07;;;12.10;;
485;SDS011;229;48.734;9.340;2023-04-08T12:18:44;18.42;;;11.95;;
485;SDS011;229;48.734;9.340;2023-04-08T12:21:11;15.77;;;12.20;;
485;SDS011;229;48.734;9.340;2023-04-08T12:23:39;14.68;;;12.68;;
485;SDS011;229;48.734;9.340;2023-04-08T12:26:06;17.92;;;13.68;;
485;SDS011;229;48.734;9.340;2023-04-08T12:28:33;13.63;;;12.10;;
485;SDS011;229;48.734;9.340;2023-04-08T12:31:02;15.88;;;12.27;;
485;SDS011;229;48.734;9.340;2023-04-08T12:33:29;14.80;;;12.45;;
485;SDS011;229;48.734;9.340;2023-04-08T12:35:56;14.13;;;12.10;;
485;SDS011;229;48.734;9.340;2023-04-08T12:38:24;15.23;;;12.43;;
485;SDS011;229;48.734;9.340;2023-04-08T12:40:51;15.20;;;13.10;;
485;SDS011;229;48.734;9.340;2023-04-08T12:43:18;14.05;;;12.10;;
485;SDS011;229;48.734;9.340;2023-04-08T12:45:46;17.27;;;12.82;;
485;SDS011;229;48.734;9.340;2023-04-08T12:48:15;14.73;;;12.77;;
485;SDS011;229;48.734;9.340;2023-04-08T12:50:42;14.48;;;13.68;;
485;SDS011;229;48.734;9.340;2023-04-08T12:53:09;17.25;;;12.52;;
485;SDS011;229;48.734;9.340;2023-04-08T12:55:37;15.02;;;12.10;;
485;SDS011;229;48.734;9.340;2023-04-08T12:58:04;17.80;;;13.20;;
485;SDS011;229;48.734;9.340;2023-04-08T13:00:33;13.93;;;12.48;;
485;SDS011;229;48.734;9.340;2023-04-08T13:03:02;17.33;;;13.43;;
485;SDS011;229;48.734;9.340;2023-04-08T13:05:31;17.23;;;13.80;;
485;SDS011;229;48.734;9.340;2023-04-08T13:07:58;15.27;;;13.23;;
485;SDS011;229;48.734;9.340;2023-04-08T13:10:25;16.60;;;13.13;;
485;SDS011;229;48.734;9.340;2023-04-08T13:12:53;17.60;;;12.82;;
485;SDS011;229;48.734;9.340;2023-04-08T13:15:20;16.75;;;13.45;;
485;SDS011;229;48.734;9.340;2023-04-08T13:17:47;14.90;;;12.75;;
485;SDS011;229;48.734;9.340;2023-04-08T13:20:15;15.80;;;13.65;;
485;SDS011;229;48.734;9.340;2023-04-08T13:22:43;17.73;;;13.35;;
485;SDS011;229;48.734;9.340;2023-04-08T13:25:10;13.60;;;12.90;;
485;SDS011;229;48.734;9.340;2023-04-08T13:27:38;18.00;;;12.90;;
485;SDS011;229;48.734;9.340;2023-04-08T13:30:05;13.02;;;12.15;;
485;SDS011;229;48.734;9.340;2023-04-08T13:32:32;16.10;;;12.90;;
485;SDS011;229;48.734;9.340;2023-04-08T13:35:00;16.20;;;12.55;;
485;SDS011;229;48.734;9.340;2023-04-08T13:37:27;13.30;;;11.90;;
485;SDS011;229;48.734;9.340;2023-04-08T13:39:56;15.00;;;13.25;;
485;SDS011;229;48.734;9.340;2023-04-08T13:42:23;16.13;;;12.77;;
485;SDS011;229;48.734;9.340;2023-04-08T13:44:51;13.27;;;11.88;;
485;SDS011;229;48.734;9.340;2023-04-08T13:47:18;14.98;;;12.60;;
485;SDS011;229;48.734;9.340;2023-04-08T13:49:45;14.48;;;13.07;;
485;SDS011;229;48.734;9.340;2023-04-08T13:52:12;15.70;;;13.23;;
485;SDS011;229;48.734;9.340;2023-04-08T13:54:39;15.77;;;14.38;;
485;SDS011;229;48.734;9.340;2023-04-08T13:57:08;13.18;;;11.65;;
485;SDS011;229;48.734;9.340;2023-04-08T13:59:35;15.77;;;12.40;;
485;SDS011;229;48.734;9.340;2023-04-08T14:02:02;17.90;;;13.48;;
485;SDS011;229;48.734;9.340;2023-04-08T14:04:30;16.35;;;13.45;;
485;SDS011;229;48.734;9.340;2023-04-08T14:06:57;23.77;;;20.05;;
485;SDS011;229;48.734;9.340;2023-04-08T14:09:25;21.48;;;17.40;;
485;SDS011;229;48.734;9.340;2023-04-08T14:11:52;14.00;;;12.40;;
485;SDS011;229;48.734;9.340;2023-04-08T14:14:21;17.33;;;13.95;;
485;SDS011;229;48.734;9.340;2023-04-08T14:16:48;14.13;;;13.07;;
485;SDS011;229;48.734;9.340;2023-04-08T14:19:16;15.90;;;13.20;;
485;SDS011;229;48.734;9.340;2023-04-08T14:21:43;15.55;;;13.30;;
485;SDS011;229;48.734;9.340;2023-04-08T14:24:10;16.52;;;12.80;;
485;SDS011;229;48.734;9.340;2023-04-08T14:26:37;13.40;;;11.95;;
485;SDS011;229;48.734;9.340;2023-04-08T14:29:05;14.02;;;12.50;;
485;SDS011;229;48.734;9.340;2023-04-08T14:31:33;14.65;;;12.93;;
485;SDS011;229;48.734;9.340;2023-04-08T14:34:01;13.55;;;12.40;;
485;SDS011;229;48.734;9.340;2023-04-08T14:36:29;20.58;;;13.38;;
485;SDS011;229;48.734;9.340;2023-04-08T14:38:56;12.40;;;10.57;;
485;SDS011;229;48.734;9.340;2023-04-08T14:41:24;12.10;;;10.93;;
485;SDS011;229;48.734;9.340;2023-04-08T14:43:51;11.73;;;10.30;;
485;SDS011;229;48.734;9.340;2023-04-08T14:46:18;15.10;;;11.80;;
485;SDS011;229;48.734;9.340;2023-04-08T14:48:47;12.77;;;10.30;;
485;SDS011;229;48.734;9.340;2023-04-08T14:51:14;16.30;;;11.80;;
485;SDS011;229;48.734;9.340;2023-04-08T14:53:42;13.55;;;11.38;;
485;SDS011;229;48.734;9.340;2023-04-08T14:56:09;15.40;;;11.45;;
485;SDS011;229;48.734;9.340;2023-04-08T14:58:36;16.20;;;10.85;;
485;SDS011;229;48.734;9.340;2023-04-08T15:01:04;12.43;;;10.35;;
485;SDS011;229;48.734;9.340;2023-04-08T15:03:31;9.45;;;9.00;;
485;SDS011;229;48.734;9.340;2023-04-08T15:05:59;9.98;;;9.40;;
485;SDS011;229;48.734;9.340;2023-04-08T15:08:27;9.30;;;8.80;;
485;SDS011;229;48.734;9.340;2023-04-08T15:10:54;13.23;;;9.77;;
485;SDS011;229;48.734;9.340;2023-04-08T15:13:22;11.55;;;9.60;;
485;SDS011;229;48.734;9.340;2023-04-08T15:15:52;11.77;;;9.82;;
485;SDS011;229;48.734;9.340;2023-04-08T15:18:19;12.65;;;8.85;;
485;SDS011;229;48.734;9.340;2023-04-08T15:20:46;9.95;;;9.32;;
485;SDS011;229;48.734;9.340;2023-04-08T15:23:15;10.50;;;9.10;;